createdAt,value
2022-09-04T00:02:20.506Z,100171.75
2022-09-04T00:05:01.233Z,100174.50
2022-09-04T00:07:35.512Z,100173.75
2022-09-04T00:10:13.149Z,100174.00
2022-09-04T00:13:12.693Z,100170.91
2022-09-04T00:15:44.780Z,100171.47
2022-09-04T00:18:29.391Z,100169.91
2022-09-04T00:21:24.479Z,100174.22
2022-09-04T00:23:59.117Z,100169.00
2022-09-04T00:26:38.885Z,100166.03
2022-09-04T00:29:18.606Z,100178.44
2022-09-04T00:32:03.404Z,100180.59
2022-09-04T00:34:55.833Z,100169.94
2022-09-04T00:37:26.741Z,100186.59
2022-09-04T00:40:04.039Z,100185.19
2022-09-04T00:43:07.230Z,100186.06
2022-09-04T00:45:51.132Z,100179.56
2022-09-04T00:48:57.256Z,100188.34
2022-09-04T00:51:27.561Z,100175.84
2022-09-04T00:54:04.964Z,100188.63
2022-09-04T00:56:41.174Z,100176.91
2022-09-04T00:59:35.212Z,100183.00
2022-09-04T01:02:12.251Z,100170.06
2022-09-04T01:04:50.614Z,100176.28
2022-09-04T01:07:50.092Z,100178.16
2022-09-04T01:10:44.485Z,100178.75
2022-09-04T01:13:24.175Z,100188.97
2022-09-04T01:16:03.389Z,100190.13
2022-09-04T01:18:38.116Z,100194.59
2022-09-04T01:21:30.856Z,100192.09
2022-09-04T01:24:07.320Z,100199.53
2022-09-04T01:26:53.035Z,100203.41
2022-09-04T01:30:09.777Z,100201.91
2022-09-04T01:32:56.197Z,100206.66
2022-09-04T01:35:44.619Z,100209.09
2022-09-04T01:38:25.693Z,100213.16
2022-09-04T01:41:27.389Z,100207.59
2022-09-04T01:43:55.057Z,100216.16
2022-09-04T01:46:34.869Z,100221.25
2022-09-04T01:49:11.419Z,100221.62
2022-09-04T01:51:46.970Z,100223.25
2022-09-04T01:54:31.758Z,100225.25
2022-09-04T01:57:14.361Z,100221.75
2022-09-04T02:00:10.239Z,100215.78
2022-09-04T02:03:05.909Z,100216.03
2022-09-04T02:05:42.578Z,100212.72
2022-09-04T02:08:52.552Z,100215.25
2022-09-04T02:11:27.900Z,100214.28
2022-09-04T02:14:11.211Z,100209.38
2022-09-04T02:16:49.345Z,100216.31
2022-09-04T02:19:45.035Z,100218.12
2022-09-04T02:22:30.761Z,100211.09
2022-09-04T02:25:22.671Z,100211.47
2022-09-04T02:28:19.498Z,100212.69
2022-09-04T02:31:05.523Z,100213.37
2022-09-04T02:34:13.440Z,100217.22
2022-09-04T02:36:50.304Z,100221.88
2022-09-04T02:39:35.821Z,100220.06
2022-09-04T02:42:27.890Z,100223.41
2022-09-04T02:45:10.149Z,100215.09
2022-09-04T02:48:13.661Z,100216.03
2022-09-04T02:50:50.262Z,100212.41
2022-09-04T02:53:35.632Z,100216.66
2022-09-04T02:56:21.697Z,100218.47
2022-09-04T02:59:11.877Z,100217.00
2022-09-04T03:02:04.162Z,100222.75
2022-09-04T03:04:50.120Z,100221.56
2022-09-04T03:08:04.164Z,100218.72
2022-09-04T03:10:41.937Z,100221.47
2022-09-04T03:13:32.592Z,100217.00
2022-09-04T03:16:10.396Z,100217.75
2022-09-04T03:19:09.750Z,100219.87
2022-09-04T03:21:49.680Z,100223.53
2022-09-04T03:24:28.369Z,100221.91
2022-09-04T03:26:59.710Z,100224.09
2022-09-04T03:29:54.370Z,100229.25
2022-09-04T03:32:32.532Z,100232.81
2022-09-04T03:35:03.759Z,100234.00
2022-09-04T03:37:53.688Z,100238.19
2022-09-04T03:40:57.594Z,100246.47
2022-09-04T03:43:49.816Z,100244.63
2022-09-04T03:47:03.382Z,100251.34
2022-09-04T03:50:23.624Z,100240.19
2022-09-04T03:53:19.185Z,100252.53
2022-09-04T03:56:02.749Z,100252.03
2022-09-04T03:59:03.570Z,100248.62
2022-09-04T04:01:31.127Z,100245.81
2022-09-04T04:04:04.856Z,100253.16
2022-09-04T04:06:40.805Z,100248.78
2022-09-04T04:09:29.937Z,100260.22
2022-09-04T04:12:35.065Z,100260.50
2022-09-04T04:15:27.772Z,100259.41
2022-09-04T04:18:22.165Z,100271.22
2022-09-04T04:20:59.637Z,100277.78
2022-09-04T04:24:00.057Z,100284.22
2022-09-04T04:26:50.611Z,100289.72
2022-09-04T04:29:51.338Z,100297.87
2022-09-04T04:32:37.798Z,100300.56
2022-09-04T04:35:20.146Z,100299.97
2022-09-04T04:38:05.774Z,100309.91
2022-09-04T04:41:17.277Z,100313.16
2022-09-04T04:43:56.892Z,100308.69
2022-09-04T04:46:39.379Z,100314.06
2022-09-04T04:49:33.526Z,100321.19
2022-09-04T04:52:21.660Z,100308.53
2022-09-04T04:54:57.088Z,100320.66
2022-09-04T04:57:53.445Z,100326.00
2022-09-04T05:00:27.701Z,100332.13
2022-09-04T05:03:12.796Z,100331.03
2022-09-04T05:05:57.049Z,100331.59
2022-09-04T05:09:03.144Z,100331.25
2022-09-04T05:11:36.825Z,100333.66
2022-09-04T05:14:12.181Z,100328.47
2022-09-04T05:16:54.855Z,100341.75
2022-09-04T05:19:41.515Z,100325.56
2022-09-04T05:22:20.338Z,100336.66
2022-09-04T05:25:02.548Z,100339.28
2022-09-04T05:27:38.424Z,100332.84
2022-09-04T05:30:10.192Z,100332.37
2022-09-04T05:32:54.509Z,100333.50
2022-09-04T05:35:35.137Z,100336.28
2022-09-04T05:38:10.742Z,100335.50
2022-09-04T05:40:44.241Z,100347.69
2022-09-04T05:43:11.767Z,100348.87
2022-09-04T05:45:51.526Z,100351.41
2022-09-04T05:48:26.791Z,100350.78
2022-09-04T05:51:36.402Z,100357.53
2022-09-04T05:54:17.826Z,100363.47
2022-09-04T05:57:10.378Z,100364.06
2022-09-04T05:59:47.867Z,100358.50
2022-09-04T06:02:18.226Z,100359.69
2022-09-04T06:05:04.776Z,100350.56
2022-09-04T06:07:53.963Z,100354.53
2022-09-04T06:10:36.994Z,100355.72
2022-09-04T06:13:42.099Z,100354.25
2022-09-04T06:16:26.437Z,100358.06
2022-09-04T06:19:21.323Z,100349.63
2022-09-04T06:21:49.019Z,100352.56
2022-09-04T06:24:32.694Z,100356.53
2022-09-04T06:27:15.733Z,100360.31
2022-09-04T06:30:02.122Z,100363.22
2022-09-04T06:32:45.734Z,100369.63
2022-09-04T06:35:18.345Z,100363.59
2022-09-04T06:37:58.367Z,100369.31
2022-09-04T06:40:45.109Z,100366.25
2022-09-04T06:43:42.219Z,100365.28
2022-09-04T06:46:31.649Z,100377.25
2022-09-04T06:49:21.202Z,100378.66
2022-09-04T06:52:13.084Z,100382.84
2022-09-04T06:54:59.444Z,100388.78
2022-09-04T06:57:54.746Z,100383.44
2022-09-04T07:00:22.416Z,100387.22
2022-09-04T07:03:14.861Z,100383.69
2022-09-04T07:05:53.034Z,100386.06
2022-09-04T07:08:29.452Z,100397.81
2022-09-04T07:11:33.800Z,100390.38
2022-09-04T07:14:20.173Z,100392.94
2022-09-04T07:17:03.963Z,100386.44
2022-09-04T07:19:39.269Z,100395.38
2022-09-04T07:22:35.359Z,100393.31
2022-09-04T07:25:13.561Z,100395.22
2022-09-04T07:28:18.885Z,100395.38
2022-09-04T07:30:52.528Z,100398.91
2022-09-04T07:33:40.536Z,100395.34
2022-09-04T07:36:18.234Z,100398.94
2022-09-04T07:38:51.719Z,100401.16
2022-09-04T07:41:44.269Z,100416.06
2022-09-04T07:44:29.204Z,100408.53
2022-09-04T07:47:23.077Z,100404.34
2022-09-04T07:50:09.426Z,100413.81
2022-09-04T07:53:08.336Z,100418.12
2022-09-04T07:55:43.263Z,100412.56
2022-09-04T07:58:45.601Z,100418.28
2022-09-04T08:01:40.070Z,100415.88
2022-09-04T08:04:20.307Z,100426.22
2022-09-04T08:06:54.015Z,100428.66
2022-09-04T08:10:09.784Z,100435.78
2022-09-04T08:12:39.851Z,100450.63
2022-09-04T08:15:21.920Z,100461.84
2022-09-04T08:18:23.696Z,100454.22
2022-09-04T08:21:19.765Z,100454.50
2022-09-04T08:24:13.834Z,100455.34
2022-09-04T08:26:55.077Z,100451.75
2022-09-04T08:29:40.850Z,100452.69
2022-09-04T08:32:46.329Z,100453.84
2022-09-04T08:35:20.052Z,100458.00
2022-09-04T08:38:00.409Z,100455.28
2022-09-04T08:40:53.878Z,100458.03
2022-09-04T08:43:36.318Z,100456.53
2022-09-04T08:46:34.933Z,100450.34
2022-09-04T08:49:10.525Z,100455.50
2022-09-04T08:52:02.595Z,100462.81
2022-09-04T08:55:11.574Z,100464.81
2022-09-04T08:57:49.524Z,100465.72
2022-09-04T09:00:21.768Z,100452.66
2022-09-04T09:03:13.654Z,100455.19
2022-09-04T09:06:10.482Z,100457.91
2022-09-04T09:08:53.229Z,100458.28
2022-09-04T09:11:51.028Z,100462.12
2022-09-04T09:14:43.229Z,100464.44
2022-09-04T09:17:16.981Z,100466.56
2022-09-04T09:20:00.751Z,100465.69
2022-09-04T09:22:40.805Z,100462.34
2022-09-04T09:25:21.056Z,100472.97
2022-09-04T09:28:30.446Z,100469.59
2022-09-04T09:31:34.492Z,100468.50
2022-09-04T09:34:43.495Z,100470.53
2022-09-04T09:37:40.329Z,100474.87
2022-09-04T09:40:33.099Z,100475.81
2022-09-04T09:43:24.404Z,100469.72
2022-09-04T09:46:04.583Z,100474.16
2022-09-04T09:48:32.432Z,100474.16
2022-09-04T09:51:15.421Z,100475.00
2022-09-04T09:54:15.393Z,100476.72
2022-09-04T09:57:12.643Z,100464.44
2022-09-04T10:00:05.970Z,100468.06
2022-09-04T10:02:45.190Z,100468.88
2022-09-04T10:05:46.929Z,100466.28
2022-09-04T10:08:51.994Z,100472.44
2022-09-04T10:11:36.795Z,100476.88
2022-09-04T10:14:23.178Z,100472.38
2022-09-04T10:17:03.616Z,100471.47
2022-09-04T10:19:46.468Z,100469.75
2022-09-04T10:22:58.477Z,100469.66
2022-09-04T10:26:09.406Z,100467.97
2022-09-04T10:29:09.987Z,100468.78
2022-09-04T10:31:46.102Z,100467.00
2022-09-04T10:34:46.840Z,100466.09
2022-09-04T10:37:36.169Z,100467.84
2022-09-04T10:40:27.182Z,100473.06
2022-09-04T10:43:09.775Z,100474.72
2022-09-04T10:45:41.496Z,100478.03
2022-09-04T10:48:31.037Z,100474.19
2022-09-04T10:51:35.095Z,100476.12
2022-09-04T10:54:16.845Z,100479.28
2022-09-04T10:57:04.130Z,100488.03
2022-09-04T10:59:49.574Z,100492.00
2022-09-04T11:02:35.728Z,100492.09
2022-09-04T11:05:42.233Z,100490.56
2022-09-04T11:08:13.686Z,100491.53
2022-09-04T11:10:59.082Z,100491.50
2022-09-04T11:14:06.549Z,100482.69
2022-09-04T11:17:15.783Z,100492.06
2022-09-04T11:20:02.148Z,100486.12
2022-09-04T11:22:40.957Z,100488.09
2022-09-04T11:25:33.394Z,100482.09
2022-09-04T11:28:13.126Z,100492.75
2022-09-04T11:31:08.232Z,100483.91
2022-09-04T11:34:14.133Z,100486.59
2022-09-04T11:37:15.380Z,100491.03
2022-09-04T11:39:59.213Z,100483.94
2022-09-04T11:42:41.354Z,100492.66
2022-09-04T11:45:17.591Z,100480.41
2022-09-04T11:48:12.073Z,100477.72
2022-09-04T11:51:01.544Z,100471.59
2022-09-04T11:54:02.230Z,100470.72
2022-09-04T11:56:40.680Z,100472.47
2022-09-04T11:59:28.287Z,100470.63
2022-09-04T12:02:23.653Z,100462.66
2022-09-04T12:05:16.090Z,100451.22
2022-09-04T12:08:04.512Z,100452.00
2022-09-04T12:11:04.771Z,100451.19
2022-09-04T12:13:58.070Z,100441.28
2022-09-04T12:16:47.467Z,100443.25
2022-09-04T12:19:55.146Z,100444.91
2022-09-04T12:22:45.969Z,100443.00
2022-09-04T12:25:28.671Z,100436.72
2022-09-04T12:28:16.120Z,100442.84
2022-09-04T12:31:02.230Z,100435.75
2022-09-04T12:33:51.530Z,100440.97
2022-09-04T12:36:42.182Z,100444.50
2022-09-04T12:39:21.852Z,100451.16
2022-09-04T12:42:19.235Z,100443.22
2022-09-04T12:44:59.956Z,100434.81
2022-09-04T12:47:43.375Z,100432.09
2022-09-04T12:50:19.055Z,100432.12
2022-09-04T12:53:12.615Z,100430.28
2022-09-04T12:55:51.417Z,100433.66
2022-09-04T12:58:42.945Z,100429.03
2022-09-04T13:01:39.063Z,100421.72
2022-09-04T13:04:06.397Z,100423.00
2022-09-04T13:06:56.956Z,100422.00
2022-09-04T13:09:28.953Z,100427.03
2022-09-04T13:12:21.560Z,100423.00
2022-09-04T13:15:19.455Z,100421.06
2022-09-04T13:18:14.184Z,100414.69
2022-09-04T13:21:14.020Z,100404.59
2022-09-04T13:23:49.305Z,100406.25
2022-09-04T13:26:42.646Z,100402.75
2022-09-04T13:29:16.090Z,100396.81
2022-09-04T13:32:00.494Z,100399.94
2022-09-04T13:34:29.103Z,100400.00
2022-09-04T13:37:24.614Z,100400.06
2022-09-04T13:40:01.056Z,100397.50
2022-09-04T13:43:04.751Z,100399.97
2022-09-04T13:45:41.976Z,100403.94
2022-09-04T13:48:32.644Z,100397.28
2022-09-04T13:51:18.846Z,100388.94
2022-09-04T13:54:05.180Z,100396.69
2022-09-04T13:56:35.533Z,100391.09
2022-09-04T13:59:09.445Z,100383.37
2022-09-04T14:01:46.181Z,100385.72
2022-09-04T14:04:50.860Z,100384.84
2022-09-04T14:07:26.989Z,100383.91
2022-09-04T14:09:56.820Z,100387.16
2022-09-04T14:12:53.753Z,100381.56
2022-09-04T14:15:32.826Z,100386.31
2022-09-04T14:18:14.117Z,100380.06
2022-09-04T14:20:52.449Z,100376.97
2022-09-04T14:23:41.573Z,100377.00
2022-09-04T14:26:32.078Z,100384.56
2022-09-04T14:29:07.458Z,100381.25
2022-09-04T14:31:46.865Z,100377.56
2022-09-04T14:34:56.112Z,100386.28
2022-09-04T14:37:48.397Z,100382.44
2022-09-04T14:40:37.396Z,100379.87
2022-09-04T14:43:28.522Z,100378.59
2022-09-04T14:46:28.580Z,100385.78
2022-09-04T14:49:03.171Z,100394.16
2022-09-04T14:51:43.609Z,100391.16
2022-09-04T14:54:18.480Z,100391.78
2022-09-04T14:56:51.283Z,100391.00
2022-09-04T14:59:18.802Z,100391.69
2022-09-04T15:02:13.996Z,100396.22
2022-09-04T15:04:54.592Z,100393.41
2022-09-04T15:07:43.990Z,100389.47
2022-09-04T15:10:35.978Z,100396.31
2022-09-04T15:13:21.749Z,100400.22
2022-09-04T15:16:10.671Z,100395.97
2022-09-04T15:18:56.524Z,100407.00
2022-09-04T15:21:36.145Z,100404.75
2022-09-04T15:24:17.968Z,100407.03
2022-09-04T15:27:12.611Z,100393.47
2022-09-04T15:30:02.229Z,100398.91
2022-09-04T15:32:42.605Z,100413.03
2022-09-04T15:35:33.649Z,100412.50
2022-09-04T15:38:21.199Z,100414.22
2022-09-04T15:41:15.224Z,100416.97
2022-09-04T15:43:55.795Z,100420.50
2022-09-04T15:46:47.799Z,100421.22
2022-09-04T15:49:20.677Z,100420.63
2022-09-04T15:51:54.969Z,100420.63
2022-09-04T15:54:34.447Z,100423.63
2022-09-04T15:57:08.474Z,100418.28
2022-09-04T15:59:44.327Z,100418.31
2022-09-04T16:02:21.456Z,100417.53
2022-09-04T16:05:11.100Z,100424.56
2022-09-04T16:07:46.618Z,100423.53
2022-09-04T16:10:28.808Z,100424.41
2022-09-04T16:12:59.739Z,100420.84
2022-09-04T16:15:31.881Z,100423.44
2022-09-04T16:18:08.501Z,100415.56
2022-09-04T16:20:53.207Z,100414.97
2022-09-04T16:23:30.194Z,100406.97
2022-09-04T16:25:59.883Z,100411.56
2022-09-04T16:28:35.254Z,100403.78
2022-09-04T16:31:10.079Z,100410.78
2022-09-04T16:33:47.130Z,100414.31
2022-09-04T16:36:26.190Z,100406.34
2022-09-04T16:38:59.797Z,100416.16
2022-09-04T16:41:37.612Z,100404.66
2022-09-04T16:44:15.755Z,100410.81
2022-09-04T16:47:05.912Z,100408.22
2022-09-04T16:49:47.156Z,100409.13
2022-09-04T16:52:22.032Z,100410.94
2022-09-04T16:55:11.479Z,100414.44
2022-09-04T16:58:07.413Z,100410.03
2022-09-04T17:00:59.939Z,100414.62
2022-09-04T17:04:14.138Z,100425.38
2022-09-04T17:06:54.310Z,100427.19
2022-09-04T17:09:57.256Z,100420.13
2022-09-04T17:12:56.244Z,100418.34
2022-09-04T17:15:53.329Z,100427.25
2022-09-04T17:18:26.817Z,100427.37
2022-09-04T17:24:01.294Z,100429.22
2022-09-04T17:28:56.217Z,100438.03
2022-09-04T17:29:10.501Z,100437.16
2022-09-04T17:29:55.302Z,100437.19
2022-09-04T17:33:46.145Z,100442.47
2022-09-04T17:40:32.263Z,100449.53
2022-09-04T17:40:55.265Z,100459.22
2022-09-04T17:41:52.124Z,100461.00
2022-09-04T17:44:28.412Z,100471.53
2022-09-04T17:47:19.956Z,100479.47
2022-09-04T17:49:52.194Z,100478.53
2022-09-04T17:52:32.220Z,100482.00
2022-09-04T17:55:07.605Z,100492.56
2022-09-04T17:58:01.276Z,100494.25
2022-09-04T18:00:34.082Z,100504.84
2022-09-04T18:03:25.983Z,100494.81
2022-09-04T18:06:02.029Z,100498.28
2022-09-04T18:08:39.976Z,100505.00
2022-09-04T18:11:13.474Z,100508.63
2022-09-04T18:14:02.909Z,100517.47
2022-09-04T18:16:36.549Z,100516.19
2022-09-04T18:19:37.017Z,100527.72
2022-09-04T18:22:26.149Z,100538.00
2022-09-04T18:25:16.344Z,100531.84
2022-09-04T18:28:06.251Z,100537.94
2022-09-04T18:37:06.288Z,100543.81
2022-09-04T18:37:17.419Z,100547.34
2022-09-04T18:37:25.484Z,100546.38
2022-09-04T18:39:51.841Z,100546.16
2022-09-04T18:46:06.564Z,100562.72
2022-09-04T18:50:28.111Z,100559.53
2022-09-04T18:50:48.100Z,100562.16
2022-09-04T18:51:30.536Z,100553.03
2022-09-04T18:54:19.948Z,100560.56
2022-09-04T18:56:53.195Z,100557.53
2022-09-04T18:59:28.606Z,100563.69
2022-09-04T19:02:03.628Z,100570.22
2022-09-04T19:04:36.187Z,100567.91
2022-09-04T19:07:18.120Z,100580.00
2022-09-04T19:09:56.124Z,100579.37
2022-09-04T19:12:35.791Z,100589.41
2022-09-04T19:15:45.825Z,100588.12
2022-09-04T19:18:45.564Z,100591.16
2022-09-04T19:21:38.343Z,100600.53
2022-09-04T19:24:25.211Z,100590.38
2022-09-04T19:27:26.881Z,100596.63
2022-09-04T19:30:19.937Z,100595.16
2022-09-04T19:33:23.221Z,100596.28
2022-09-04T19:36:12.555Z,100598.03
2022-09-04T19:44:36.655Z,100604.25
2022-09-04T19:45:55.529Z,100604.44
2022-09-04T19:46:01.098Z,100590.34
2022-09-04T19:47:44.611Z,100598.09
2022-09-04T19:53:19.394Z,100597.19
2022-09-04T19:53:31.646Z,100598.56
2022-09-04T19:56:26.158Z,100600.63
2022-09-04T19:58:58.259Z,100598.88
2022-09-04T20:01:31.153Z,100597.47
2022-09-04T20:04:09.645Z,100592.22
2022-09-04T20:06:46.777Z,100595.31
2022-09-04T20:09:46.225Z,100599.94
2022-09-04T20:12:26.924Z,100599.87
2022-09-04T20:15:07.875Z,100600.81
2022-09-04T20:18:04.270Z,100606.41
2022-09-04T20:20:44.973Z,100602.66
2022-09-04T20:23:34.042Z,100600.28
2022-09-04T20:26:04.961Z,100600.97
2022-09-04T20:28:51.059Z,100603.53
2022-09-04T20:31:33.268Z,100602.91
2022-09-04T20:34:22.209Z,100601.78
2022-09-04T20:37:00.290Z,100596.06
2022-09-04T20:39:41.777Z,100605.88
2022-09-04T20:42:20.148Z,100608.66
2022-09-04T20:46:46.856Z,100603.47
2022-09-04T20:52:49.131Z,100603.94
2022-09-04T20:53:05.329Z,100594.22
2022-09-04T20:53:45.698Z,100596.94
2022-09-04T20:58:05.502Z,100597.47
2022-09-04T21:03:11.325Z,100602.53
2022-09-04T21:03:22.527Z,100597.28
2022-09-04T21:05:54.269Z,100595.41
2022-09-04T21:08:43.640Z,100592.66
2022-09-04T21:11:40.702Z,100601.72
2022-09-04T21:14:45.625Z,100589.56
2022-09-04T21:17:33.390Z,100593.91
2022-09-04T21:20:08.575Z,100602.19
2022-09-04T21:22:39.249Z,100601.66
2022-09-04T21:25:31.584Z,100611.25
2022-09-04T21:28:18.241Z,100609.16
2022-09-04T21:30:52.222Z,100608.75
2022-09-04T21:33:28.234Z,100611.22
2022-09-04T21:36:25.334Z,100619.72
2022-09-04T21:39:17.391Z,100615.59
2022-09-04T21:42:20.027Z,100619.38
2022-09-04T21:45:09.333Z,100617.03
2022-09-04T21:48:17.963Z,100621.09
2022-09-04T21:51:04.399Z,100621.88
2022-09-04T21:53:31.886Z,100626.22
2022-09-04T21:57:49.083Z,100625.12
2022-09-04T22:02:38.832Z,100621.88
2022-09-04T22:02:57.667Z,100631.66
2022-09-04T22:05:38.771Z,100629.34
2022-09-04T22:13:30.304Z,100633.09
2022-09-04T22:13:33.558Z,100631.22
2022-09-04T22:14:36.255Z,100624.13
2022-09-04T22:17:24.918Z,100627.03
2022-09-04T22:20:40.303Z,100622.81
2022-09-04T22:23:26.454Z,100620.31
2022-09-04T22:26:31.680Z,100625.34
2022-09-04T22:29:18.601Z,100633.44
2022-09-04T22:32:20.299Z,100630.41
2022-09-04T22:34:57.364Z,100635.94
2022-09-04T22:37:46.530Z,100640.16
2022-09-04T22:40:26.092Z,100640.13
2022-09-04T22:43:02.452Z,100640.78
2022-09-04T22:46:02.946Z,100636.63
2022-09-04T22:49:12.511Z,100635.09
2022-09-04T22:51:54.753Z,100631.72
2022-09-04T22:55:36.290Z,100633.34
2022-09-04T22:58:19.325Z,100637.81
2022-09-04T23:01:14.183Z,100645.72
2022-09-04T23:03:54.033Z,100639.63
2022-09-04T23:09:03.098Z,100643.34
2022-09-04T23:13:45.086Z,100646.50
2022-09-04T23:13:51.607Z,100652.47
2022-09-04T23:16:02.634Z,100645.56
2022-09-04T23:22:27.709Z,100639.75
2022-09-04T23:26:34.109Z,100641.31
2022-09-04T23:26:44.479Z,100643.22
2022-09-04T23:27:37.400Z,100647.81
2022-09-04T23:30:10.219Z,100637.97
2022-09-04T23:32:53.981Z,100651.75
2022-09-04T23:35:46.781Z,100643.63
2022-09-04T23:38:39.268Z,100637.41
2022-09-04T23:41:30.310Z,100640.75
2022-09-04T23:44:38.572Z,100644.03
2022-09-04T23:47:48.091Z,100638.72
2022-09-04T23:50:35.052Z,100641.63
2022-09-04T23:53:27.706Z,100635.38
2022-09-04T23:56:30.635Z,100639.16
2022-09-04T23:59:40.477Z,100633.41
